createdAt,value
2023-03-20T00:01:28.491Z,35.80
2023-03-20T00:03:56.279Z,36.00
2023-03-20T00:06:24.066Z,36.13
2023-03-20T00:08:51.854Z,36.02
2023-03-20T00:11:19.707Z,35.86
2023-03-20T00:13:47.587Z,35.79
2023-03-20T00:16:15.778Z,36.24
2023-03-20T00:18:43.596Z,35.84
2023-03-20T00:21:11.836Z,35.96
2023-03-20T00:23:39.743Z,35.77
2023-03-20T00:26:08.252Z,35.94
2023-03-20T00:28:37.553Z,36.09
2023-03-20T00:31:05.379Z,36.09
2023-03-20T00:33:33.109Z,35.83
2023-03-20T00:36:01.652Z,35.80
2023-03-20T00:38:29.476Z,35.94
2023-03-20T00:40:57.259Z,35.96
2023-03-20T00:43:25.535Z,35.90
2023-03-20T00:45:56.220Z,36.20
2023-03-20T00:48:24.113Z,35.94
2023-03-20T00:50:52.072Z,36.21
2023-03-20T00:53:19.848Z,35.94
2023-03-20T00:55:47.907Z,35.77
2023-03-20T00:58:15.736Z,35.88
2023-03-20T01:00:43.890Z,36.00
2023-03-20T01:03:12.197Z,35.86
2023-03-20T01:05:40.196Z,36.03
2023-03-20T01:08:08.156Z,35.91
2023-03-20T01:10:36.059Z,36.29
2023-03-20T01:13:03.866Z,36.26
2023-03-20T01:15:31.770Z,36.00
2023-03-20T01:17:59.483Z,36.07
2023-03-20T01:20:27.267Z,36.54
2023-03-20T01:22:55.165Z,36.12
2023-03-20T01:25:22.942Z,36.07
2023-03-20T01:27:50.913Z,36.10
2023-03-20T01:30:18.827Z,36.25
2023-03-20T01:32:48.316Z,35.91
2023-03-20T01:35:16.692Z,35.97
2023-03-20T01:37:44.877Z,36.02
2023-03-20T01:40:12.724Z,36.20
2023-03-20T01:42:40.525Z,36.00
2023-03-20T01:45:08.533Z,35.91
2023-03-20T01:47:36.451Z,36.16
2023-03-20T01:50:04.490Z,36.02
2023-03-20T01:52:32.296Z,36.33
2023-03-20T01:55:00.151Z,36.38
2023-03-20T01:57:27.917Z,36.27
2023-03-20T01:59:55.775Z,36.24
2023-03-20T02:02:23.635Z,36.07
2023-03-20T02:04:51.478Z,36.19
2023-03-20T02:07:19.292Z,36.15
2023-03-20T02:09:47.123Z,35.96
2023-03-20T02:12:14.982Z,36.31
2023-03-20T02:14:42.747Z,36.06
2023-03-20T02:17:10.587Z,36.26
2023-03-20T02:19:38.440Z,36.21
2023-03-20T02:22:06.295Z,36.44
2023-03-20T02:24:34.377Z,36.24
2023-03-20T02:27:02.158Z,36.27
2023-03-20T02:29:30.048Z,35.99
2023-03-20T02:31:58.088Z,36.14
2023-03-20T02:34:25.915Z,36.32
2023-03-20T02:36:53.805Z,36.12
2023-03-20T02:39:21.929Z,36.12
2023-03-20T02:41:49.860Z,36.20
2023-03-20T02:44:17.676Z,36.26
2023-03-20T02:46:45.464Z,36.09
2023-03-20T02:49:13.277Z,36.32
2023-03-20T02:51:41.057Z,36.30
2023-03-20T02:54:08.914Z,36.31
2023-03-20T02:56:36.834Z,36.19
2023-03-20T02:59:04.753Z,36.35
2023-03-20T03:01:33.241Z,36.02
2023-03-20T03:04:01.104Z,36.44
2023-03-20T03:06:29.803Z,36.40
2023-03-20T03:08:57.639Z,36.17
2023-03-20T03:11:25.430Z,35.98
2023-03-20T03:13:53.168Z,36.11
2023-03-20T03:16:21.049Z,36.24
2023-03-20T03:18:48.985Z,36.40
2023-03-20T03:21:16.900Z,36.01
2023-03-20T03:23:44.841Z,36.38
2023-03-20T03:26:12.702Z,36.25
2023-03-20T03:28:40.780Z,36.14
2023-03-20T03:31:08.663Z,36.02
2023-03-20T03:33:37.216Z,36.51
2023-03-20T03:36:05.386Z,36.07
2023-03-20T03:38:33.226Z,36.12
2023-03-20T03:41:00.967Z,36.00
2023-03-20T03:43:28.726Z,36.39
2023-03-20T03:45:56.688Z,36.08
2023-03-20T03:48:24.474Z,36.84
2023-03-20T03:50:52.265Z,36.13
2023-03-20T03:53:20.269Z,36.09
2023-03-20T03:55:48.160Z,36.32
2023-03-20T03:58:16.093Z,36.19
2023-03-20T04:00:43.872Z,36.51
2023-03-20T04:03:11.750Z,36.21
2023-03-20T04:05:39.620Z,36.10
2023-03-20T04:08:07.624Z,36.32
2023-03-20T04:10:35.493Z,36.34
2023-03-20T04:13:03.354Z,36.75
2023-03-20T04:15:31.119Z,36.71
2023-03-20T04:17:58.928Z,36.37
2023-03-20T04:20:26.764Z,36.42
2023-03-20T04:22:54.522Z,36.63
2023-03-20T04:25:22.373Z,36.49
2023-03-20T04:27:50.274Z,36.63
2023-03-20T04:30:17.991Z,36.54
2023-03-20T04:32:45.908Z,36.36
2023-03-20T04:35:13.762Z,36.67
2023-03-20T04:37:41.598Z,36.53
2023-03-20T04:40:09.681Z,36.37
2023-03-20T04:42:37.451Z,36.44
2023-03-20T04:45:05.278Z,36.66
2023-03-20T04:47:33.085Z,36.59
2023-03-20T04:50:00.804Z,36.24
2023-03-20T04:52:28.735Z,36.20
2023-03-20T04:54:56.455Z,36.58
2023-03-20T04:57:24.231Z,36.15
2023-03-20T04:59:52.013Z,36.58
2023-03-20T05:02:20.055Z,36.54
2023-03-20T05:04:47.872Z,36.61
2023-03-20T05:07:16.272Z,36.56
2023-03-20T05:09:43.974Z,36.45
2023-03-20T05:12:11.749Z,36.26
2023-03-20T05:14:39.635Z,36.33
2023-03-20T05:17:07.462Z,36.36
2023-03-20T05:19:35.545Z,36.18
2023-03-20T05:22:03.357Z,36.53
2023-03-20T05:24:31.433Z,36.30
2023-03-20T05:26:59.159Z,36.56
2023-03-20T05:29:26.935Z,36.38
2023-03-20T05:31:55.527Z,36.29
2023-03-20T05:34:23.280Z,36.34
2023-03-20T05:36:51.395Z,36.43
2023-03-20T05:39:19.209Z,36.42
2023-03-20T05:41:47.092Z,36.86
2023-03-20T05:44:14.960Z,36.78
2023-03-20T05:46:42.875Z,37.00
2023-03-20T05:49:10.669Z,36.89
2023-03-20T05:51:38.497Z,36.83
2023-03-20T05:54:06.920Z,36.92
2023-03-20T05:56:34.739Z,36.94
2023-03-20T05:59:02.817Z,36.88
2023-03-20T06:01:30.538Z,37.04
2023-03-20T06:03:58.449Z,36.65
2023-03-20T06:06:26.244Z,37.00
2023-03-20T06:08:54.077Z,36.85
2023-03-20T06:11:21.939Z,36.50
2023-03-20T06:13:51.169Z,36.73
2023-03-20T06:16:18.982Z,36.77
2023-03-20T06:18:46.788Z,36.51
2023-03-20T06:21:14.555Z,36.76
2023-03-20T06:23:42.347Z,36.94
2023-03-20T06:26:10.107Z,36.48
2023-03-20T06:28:37.932Z,36.46
2023-03-20T06:31:05.740Z,36.30
2023-03-20T06:33:33.544Z,36.69
2023-03-20T06:36:01.417Z,36.30
2023-03-20T06:38:29.248Z,36.19
2023-03-20T06:40:57.005Z,36.29
2023-03-20T06:43:24.789Z,36.44
2023-03-20T06:45:52.584Z,36.49
2023-03-20T06:48:22.062Z,36.53
2023-03-20T06:50:50.015Z,36.40
2023-03-20T06:53:18.041Z,36.56
2023-03-20T06:55:45.850Z,36.42
2023-03-20T06:58:13.607Z,36.08
2023-03-20T07:00:42.211Z,36.08
2023-03-20T07:03:10.341Z,36.16
2023-03-20T07:05:38.779Z,36.33
2023-03-20T07:08:07.411Z,36.17
2023-03-20T07:10:35.223Z,36.00
2023-03-20T07:13:03.018Z,36.27
2023-03-20T07:15:30.849Z,36.36
2023-03-20T07:17:58.637Z,36.58
2023-03-20T07:20:26.591Z,36.22
2023-03-20T07:22:55.469Z,36.20
2023-03-20T07:25:35.372Z,36.35
2023-03-20T07:28:09.464Z,36.50
2023-03-20T07:30:37.271Z,36.14
2023-03-20T07:33:05.068Z,36.50
2023-03-20T07:35:33.024Z,36.37
2023-03-20T07:38:00.974Z,36.72
2023-03-20T07:40:28.929Z,36.12
2023-03-20T07:42:56.990Z,36.64
2023-03-20T07:45:24.805Z,36.80
2023-03-20T07:47:52.626Z,36.68
2023-03-20T07:50:20.471Z,36.53
2023-03-20T07:52:51.465Z,36.22
2023-03-20T07:55:19.244Z,36.34
2023-03-20T07:57:47.708Z,36.05
2023-03-20T08:00:15.894Z,36.10
2023-03-20T08:02:43.747Z,35.86
2023-03-20T08:05:11.614Z,36.00
2023-03-20T08:07:39.600Z,36.23
2023-03-20T08:10:07.442Z,36.02
2023-03-20T08:12:35.188Z,36.21
2023-03-20T08:15:03.008Z,36.30
2023-03-20T08:17:30.823Z,36.12
2023-03-20T08:19:58.636Z,36.36
2023-03-20T08:22:26.492Z,36.09
2023-03-20T08:24:54.286Z,36.21
2023-03-20T08:27:22.044Z,36.23
2023-03-20T08:29:49.881Z,35.95
2023-03-20T08:32:18.092Z,36.70
2023-03-20T08:34:46.094Z,36.52
2023-03-20T08:37:14.050Z,36.42
2023-03-20T08:39:41.860Z,35.98
2023-03-20T08:42:09.731Z,36.00
2023-03-20T08:44:37.567Z,36.03
2023-03-20T08:47:07.600Z,36.23
2023-03-20T08:49:35.474Z,36.38
2023-03-20T08:52:03.254Z,35.99
2023-03-20T08:54:31.243Z,36.11
2023-03-20T08:56:59.132Z,36.30
2023-03-20T08:59:26.872Z,36.36
2023-03-20T09:01:54.722Z,36.27
2023-03-20T09:04:22.539Z,35.88
2023-03-20T09:06:50.404Z,36.38
2023-03-20T09:09:20.115Z,36.29
2023-03-20T09:11:47.970Z,36.04
2023-03-20T09:14:16.131Z,36.50
2023-03-20T09:16:43.967Z,36.29
2023-03-20T09:19:11.841Z,36.12
2023-03-20T09:21:39.642Z,36.08
2023-03-20T09:24:07.406Z,36.26
2023-03-20T09:26:35.198Z,35.95
2023-03-20T09:29:02.998Z,36.28
2023-03-20T09:31:30.964Z,36.00
2023-03-20T09:33:58.858Z,36.09
2023-03-20T09:36:26.728Z,36.57
2023-03-20T09:38:54.648Z,36.12
2023-03-20T09:41:22.864Z,36.00
2023-03-20T09:43:50.706Z,35.95
2023-03-20T09:46:18.594Z,36.03
2023-03-20T09:48:46.370Z,35.92
2023-03-20T09:51:14.145Z,36.11
2023-03-20T09:53:41.963Z,36.23
2023-03-20T09:56:09.891Z,36.06
2023-03-20T09:58:37.711Z,36.21
2023-03-20T10:01:05.585Z,36.18
2023-03-20T10:03:33.388Z,36.17
2023-03-20T10:06:02.328Z,36.28
2023-03-20T10:08:30.141Z,36.27
2023-03-20T10:10:58.085Z,36.09
2023-03-20T10:13:25.889Z,35.95
2023-03-20T10:15:53.735Z,36.27
2023-03-20T10:18:21.526Z,35.99
2023-03-20T10:20:50.868Z,35.93
2023-03-20T10:23:18.698Z,36.17
2023-03-20T10:25:46.466Z,36.03
2023-03-20T10:28:14.281Z,35.99
2023-03-20T10:30:42.095Z,35.88
2023-03-20T10:33:10.087Z,36.33
2023-03-20T10:35:38.016Z,35.87
2023-03-20T10:38:05.792Z,36.24
2023-03-20T10:40:36.160Z,36.28
2023-03-20T10:43:04.120Z,36.22
2023-03-20T10:45:31.874Z,36.16
2023-03-20T10:47:59.668Z,36.09
2023-03-20T10:50:27.483Z,36.28
2023-03-20T10:52:55.489Z,36.04
2023-03-20T10:55:23.513Z,35.99
2023-03-20T10:57:51.333Z,35.97
2023-03-20T11:00:20.047Z,35.97
2023-03-20T11:02:47.753Z,35.97
2023-03-20T11:05:16.454Z,35.69
2023-03-20T11:07:44.209Z,35.70
2023-03-20T11:10:12.272Z,35.89
2023-03-20T11:12:40.060Z,35.80
2023-03-20T11:15:07.902Z,35.89
2023-03-20T11:17:35.608Z,36.07
2023-03-20T11:20:03.444Z,36.05
2023-03-20T11:22:31.333Z,35.92
2023-03-20T11:25:01.550Z,35.73
2023-03-20T11:27:29.459Z,35.73
2023-03-20T11:29:57.257Z,35.95
2023-03-20T11:32:25.055Z,36.05
2023-03-20T11:34:53.935Z,35.68
2023-03-20T11:37:21.690Z,35.68
2023-03-20T11:39:49.451Z,35.91
2023-03-20T11:42:17.203Z,35.54
2023-03-20T11:44:46.163Z,35.81
2023-03-20T11:47:13.970Z,36.12
2023-03-20T11:49:43.635Z,35.54
2023-03-20T11:52:11.483Z,35.98
2023-03-20T11:54:39.280Z,35.80
2023-03-20T11:57:07.101Z,35.76
2023-03-20T11:59:35.136Z,35.82
2023-03-20T12:02:02.981Z,35.65
2023-03-20T12:04:30.866Z,35.56
2023-03-20T12:06:58.643Z,35.60
2023-03-20T12:09:26.426Z,35.63
2023-03-20T12:11:54.245Z,36.04
2023-03-20T12:14:22.030Z,36.14
2023-03-20T12:16:49.923Z,36.24
2023-03-20T12:19:18.600Z,35.87
2023-03-20T12:21:48.339Z,35.94
2023-03-20T12:24:16.927Z,36.02
2023-03-20T12:26:44.744Z,36.17
2023-03-20T12:29:12.523Z,36.15
2023-03-20T12:31:40.930Z,36.02
2023-03-20T12:34:10.974Z,36.14
2023-03-20T12:36:39.215Z,36.23
2023-03-20T12:39:07.006Z,35.78
2023-03-20T12:41:36.585Z,35.84
2023-03-20T12:44:04.390Z,35.89
2023-03-20T12:46:32.894Z,35.99
2023-03-20T12:49:01.309Z,35.76
2023-03-20T12:51:29.136Z,35.93
2023-03-20T12:53:56.915Z,35.71
2023-03-20T12:56:24.796Z,35.89
2023-03-20T12:58:52.593Z,36.05
2023-03-20T13:01:20.519Z,36.06
2023-03-20T13:03:48.787Z,35.92
2023-03-20T13:06:16.609Z,36.09
2023-03-20T13:08:44.537Z,35.99
2023-03-20T13:11:12.346Z,35.98
2023-03-20T13:13:40.119Z,35.63
2023-03-20T13:16:07.993Z,36.09
2023-03-20T13:18:36.252Z,35.87
2023-03-20T13:21:04.570Z,35.75
2023-03-20T13:23:32.461Z,35.62
2023-03-20T13:26:00.238Z,35.48
2023-03-20T13:28:30.897Z,35.63
2023-03-20T13:30:58.639Z,35.53
2023-03-20T13:33:26.398Z,35.59
2023-03-20T13:35:54.193Z,35.49
2023-03-20T13:38:22.030Z,35.67
2023-03-20T13:40:49.868Z,35.27
2023-03-20T13:43:17.704Z,35.57
2023-03-20T13:45:45.591Z,35.23
2023-03-20T13:48:13.450Z,35.37
2023-03-20T13:50:41.257Z,35.46
2023-03-20T13:53:09.049Z,35.29
2023-03-20T13:55:37.152Z,35.16
2023-03-20T13:58:07.150Z,35.56
2023-03-20T14:00:35.402Z,35.35
2023-03-20T14:03:04.185Z,35.55
2023-03-20T14:05:32.065Z,35.25
2023-03-20T14:07:59.848Z,35.24
2023-03-20T14:10:28.216Z,35.25
2023-03-20T14:12:56.061Z,35.12
2023-03-20T14:15:23.911Z,35.42
2023-03-20T14:17:52.082Z,35.14
2023-03-20T14:20:19.933Z,35.25
2023-03-20T14:22:49.194Z,35.03
2023-03-20T14:25:17.020Z,35.31
2023-03-20T14:27:45.371Z,35.04
2023-03-20T14:30:13.263Z,35.04
2023-03-20T14:32:41.088Z,35.25
2023-03-20T14:35:08.940Z,35.12
2023-03-20T14:37:36.757Z,35.19
2023-03-20T14:40:05.101Z,34.99
2023-03-20T14:42:33.000Z,35.10
2023-03-20T14:45:00.785Z,35.16
2023-03-20T14:47:28.621Z,36.15
2023-03-20T14:49:56.488Z,35.88
2023-03-20T14:52:24.291Z,35.30
2023-03-20T14:54:52.078Z,35.10
2023-03-20T14:57:20.034Z,34.68
2023-03-20T14:59:47.896Z,34.52
2023-03-20T15:02:15.737Z,34.11
2023-03-20T15:04:43.507Z,34.27
2023-03-20T15:07:11.273Z,34.42
2023-03-20T15:09:41.073Z,34.28
2023-03-20T15:12:09.110Z,34.37
2023-03-20T15:14:36.994Z,34.31
2023-03-20T15:17:05.019Z,34.35
2023-03-20T15:19:33.752Z,34.46
2023-03-20T15:22:01.682Z,34.10
2023-03-20T15:24:29.407Z,34.54
2023-03-20T15:26:57.184Z,34.57
2023-03-20T15:29:24.945Z,34.61
2023-03-20T15:32:06.532Z,34.50
2023-03-20T15:34:40.734Z,34.53
2023-03-20T15:37:08.518Z,34.81
2023-03-20T15:39:36.427Z,34.61
2023-03-20T15:42:04.449Z,34.84
2023-03-20T15:44:32.240Z,34.67
2023-03-20T15:47:00.153Z,35.04
2023-03-20T15:49:27.954Z,34.79
2023-03-20T15:51:55.791Z,35.17
2023-03-20T15:54:23.512Z,34.87
2023-03-20T15:56:51.328Z,35.02
2023-03-20T15:59:19.197Z,34.98
2023-03-20T16:01:47.068Z,35.40
2023-03-20T16:04:14.842Z,35.41
2023-03-20T16:06:42.580Z,35.01
2023-03-20T16:09:10.460Z,35.24
2023-03-20T16:11:38.303Z,35.53
2023-03-20T16:14:06.235Z,35.38
2023-03-20T16:16:37.432Z,35.58
2023-03-20T16:19:05.340Z,35.09
2023-03-20T16:21:33.095Z,34.94
2023-03-20T16:24:01.428Z,35.09
2023-03-20T16:26:29.203Z,34.85
2023-03-20T16:28:56.986Z,34.94
2023-03-20T16:31:24.819Z,34.82
2023-03-20T16:33:52.621Z,34.75
2023-03-20T16:36:20.848Z,35.12
2023-03-20T16:38:48.654Z,35.23
2023-03-20T16:41:16.499Z,35.06
2023-03-20T16:43:44.413Z,35.33
2023-03-20T16:46:12.181Z,35.65
2023-03-20T16:48:39.948Z,35.35
2023-03-20T16:51:07.869Z,35.38
2023-03-20T16:53:35.858Z,35.42
2023-03-20T16:56:04.990Z,35.48
2023-03-20T16:58:32.861Z,35.46
2023-03-20T17:01:00.787Z,35.52
2023-03-20T17:03:28.620Z,35.16
2023-03-20T17:05:56.449Z,35.63
2023-03-20T17:08:24.658Z,35.90
2023-03-20T17:10:52.570Z,36.19
2023-03-20T17:13:20.441Z,36.19
2023-03-20T17:15:48.432Z,36.19
2023-03-20T17:18:16.406Z,36.17
2023-03-20T17:20:44.218Z,36.53
2023-03-20T17:23:12.243Z,36.42
2023-03-20T17:25:40.101Z,36.34
2023-03-20T17:28:08.041Z,35.55
2023-03-20T17:30:36.077Z,35.11
2023-03-20T17:33:04.165Z,35.33
2023-03-20T17:35:32.173Z,35.14
2023-03-20T17:37:59.963Z,35.00
2023-03-20T17:40:29.956Z,35.27
2023-03-20T17:42:57.861Z,35.11
2023-03-20T17:45:25.947Z,35.32
2023-03-20T17:47:54.226Z,35.74
2023-03-20T17:50:24.340Z,36.46
2023-03-20T17:52:52.257Z,36.34
2023-03-20T17:55:20.133Z,36.14
2023-03-20T17:57:48.726Z,36.08
2023-03-20T18:00:16.692Z,35.69
2023-03-20T18:02:44.545Z,35.59
2023-03-20T18:05:12.423Z,35.84
2023-03-20T18:07:40.525Z,35.62
2023-03-20T18:10:08.385Z,35.64
2023-03-20T18:12:36.225Z,35.37
2023-03-20T18:15:04.266Z,35.65
2023-03-20T18:17:32.065Z,35.36
2023-03-20T18:20:00.147Z,35.58
2023-03-20T18:22:28.206Z,35.62
2023-03-20T18:24:55.986Z,35.83
2023-03-20T18:27:23.867Z,35.86
2023-03-20T18:29:52.514Z,35.93
2023-03-20T18:32:20.625Z,36.06
2023-03-20T18:34:48.528Z,35.92
2023-03-20T18:37:16.412Z,36.17
2023-03-20T18:39:44.293Z,35.98
2023-03-20T18:42:12.078Z,36.38
2023-03-20T18:44:39.963Z,36.56
2023-03-20T18:47:08.414Z,36.32
2023-03-20T18:49:38.783Z,36.59
2023-03-20T18:52:06.698Z,35.97
2023-03-20T18:54:34.513Z,36.67
2023-03-20T18:57:02.466Z,35.83
2023-03-20T18:59:30.335Z,35.41
2023-03-20T19:01:58.395Z,35.35
2023-03-20T19:04:27.131Z,35.32
2023-03-20T19:06:55.091Z,35.37
2023-03-20T19:09:23.060Z,35.69
2023-03-20T19:11:51.249Z,35.23
2023-03-20T19:14:19.364Z,35.73
2023-03-20T19:16:47.434Z,35.77
2023-03-20T19:19:15.441Z,35.75
2023-03-20T19:21:43.608Z,35.62
2023-03-20T19:24:11.383Z,35.76
2023-03-20T19:26:39.187Z,35.66
2023-03-20T19:29:09.140Z,36.01
2023-03-20T19:31:37.227Z,36.05
2023-03-20T19:34:06.092Z,35.52
2023-03-20T19:36:34.600Z,35.58
2023-03-20T19:39:02.519Z,35.83
2023-03-20T19:41:32.281Z,36.01
2023-03-20T19:44:01.521Z,35.98
2023-03-20T19:46:40.175Z,36.08
2023-03-20T19:49:09.146Z,35.73
2023-03-20T19:51:37.060Z,35.89
2023-03-20T19:54:07.792Z,36.14
2023-03-20T19:56:35.690Z,35.81
2023-03-20T19:59:04.107Z,36.13
2023-03-20T20:01:33.034Z,36.63
2023-03-20T20:04:00.982Z,36.20
2023-03-20T20:06:32.050Z,36.01
2023-03-20T20:09:01.346Z,36.01
2023-03-20T20:11:29.548Z,36.00
2023-03-20T20:14:06.720Z,36.28
2023-03-20T20:16:35.975Z,35.90
2023-03-20T20:19:03.972Z,36.09
2023-03-20T20:24:21.369Z,36.03
2023-03-20T20:26:59.687Z,36.40
2023-03-20T20:29:35.099Z,36.44
2023-03-20T20:32:03.045Z,35.84
2023-03-20T20:40:06.936Z,36.29
2023-03-20T20:42:37.113Z,36.26
2023-03-20T20:45:04.971Z,36.29
2023-03-20T20:47:33.067Z,36.42
2023-03-20T20:50:04.023Z,36.38
2023-03-20T20:52:31.988Z,36.58
2023-03-20T20:55:14.511Z,36.75
2023-03-20T20:57:47.577Z,36.66
2023-03-20T21:00:15.404Z,36.59
2023-03-20T21:02:43.330Z,36.84
2023-03-20T21:05:11.265Z,36.42
2023-03-20T21:07:39.106Z,36.61
2023-03-20T21:10:07.402Z,36.67
2023-03-20T21:12:48.375Z,36.67
2023-03-20T21:15:20.495Z,36.43
2023-03-20T21:17:59.898Z,36.67
2023-03-20T21:20:29.129Z,36.83
2023-03-20T21:22:56.960Z,36.41
2023-03-20T21:25:38.814Z,36.33
2023-03-20T21:28:07.764Z,36.39
2023-03-20T21:30:36.034Z,36.35
2023-03-20T21:33:04.005Z,36.50
2023-03-20T21:35:31.947Z,36.43
2023-03-20T21:40:47.621Z,36.71
2023-03-20T21:43:16.090Z,36.72
2023-03-20T21:54:53.268Z,36.63
2023-03-20T21:57:34.968Z,36.67
2023-03-20T22:00:20.185Z,36.73
2023-03-20T22:02:32.573Z,36.50
2023-03-20T22:08:43.079Z,36.48
2023-03-20T22:11:52.292Z,36.78
2023-03-20T22:14:28.521Z,36.77
2023-03-20T22:22:42.586Z,36.73
2023-03-20T22:25:25.810Z,36.88
2023-03-20T22:28:08.475Z,36.95
2023-03-20T22:34:09.202Z,36.73
2023-03-20T22:39:36.619Z,36.97
2023-03-20T22:44:56.940Z,37.01
2023-03-20T22:47:12.371Z,37.17
2023-03-20T22:49:40.193Z,36.81
2023-03-20T22:52:24.379Z,36.71
2023-03-20T22:54:55.676Z,37.05
2023-03-20T22:57:29.008Z,36.53
2023-03-20T23:00:02.819Z,36.76
2023-03-20T23:02:30.880Z,36.98
2023-03-20T23:04:58.964Z,36.76
2023-03-20T23:07:26.870Z,37.28
2023-03-20T23:09:54.685Z,36.82
2023-03-20T23:12:22.476Z,36.66
2023-03-20T23:14:50.236Z,36.71
2023-03-20T23:17:18.879Z,37.28
2023-03-20T23:19:51.913Z,36.52
2023-03-20T23:22:21.808Z,36.87
2023-03-20T23:24:50.235Z,36.76
2023-03-20T23:27:18.974Z,36.85
2023-03-20T23:29:46.779Z,36.61
2023-03-20T23:32:14.647Z,36.87
2023-03-20T23:34:42.431Z,36.58
2023-03-20T23:37:12.627Z,36.82
2023-03-20T23:39:40.419Z,36.57
2023-03-20T23:42:20.215Z,36.86
2023-03-20T23:44:56.276Z,36.61
2023-03-20T23:47:29.987Z,36.60
2023-03-20T23:50:09.682Z,36.35
2023-03-20T23:52:40.757Z,36.82
2023-03-20T23:55:14.525Z,36.82
2023-03-20T23:57:42.273Z,36.98
